Time;durP1;ratioP1;P1;durP2;ratioP2;P2;SDS_P1;SDS_P2;PMS_P1;PMS_P2;Temp;Humidity;BMP_temperature;BMP_pressure;BME280_temperature;BME280_humidity;BME280_pressure;Samples;Min_cycle;Max_cycle;Signal;HPM_P1;HPM_P2
2023/04/21 00:01:20;;;;;;;0.50;0.50;;;;;;;11.00;100.00;96514.22;5026266;28;20054;-76
2023/04/21 00:03:46;;;;;;;0.50;0.50;;;;;;;10.96;100.00;96502.31;5024902;28;20111;-74
2023/04/21 00:06:21;;;;;;;0.50;0.50;;;;;;;10.92;100.00;96507.03;5024615;28;20061;-72
2023/04/21 00:08:48;;;;;;;0.50;0.50;;;;;;;10.00;100.00;96384.50;5026086;28;20508;-72
2023/04/21 00:11:15;;;;;;;0.50;0.50;;;;;;;10.69;100.00;96504.50;5025361;28;20512;-73
2023/04/21 00:13:42;;;;;;;0.50;0.50;;;;;;;10.10;100.00;96416.22;5025597;28;20432;-74
2023/04/21 00:16:09;;;;;;;0.50;0.50;;;;;;;10.73;100.00;96500.56;5025362;28;20057;-73
2023/04/21 00:18:37;;;;;;;0.40;0.40;;;;;;;10.36;100.00;96452.81;5025528;28;20134;-73
2023/04/21 00:21:04;;;;;;;0.50;0.50;;;;;;;10.58;100.00;96490.56;5024410;28;20064;-75
2023/04/21 00:23:31;;;;;;;0.47;0.47;;;;;;;10.48;100.00;96494.03;5024171;28;20542;-73
2023/04/21 00:25:58;;;;;;;0.50;0.50;;;;;;;10.42;100.00;96490.03;5025794;28;20053;-75
2023/04/21 00:28:24;;;;;;;0.50;0.50;;;;;;;10.09;100.00;96440.31;5025418;28;20425;-72
2023/04/21 00:30:53;;;;;;;0.50;0.50;;;;;;;9.52;100.00;96373.75;5025138;28;20140;-74
2023/04/21 00:33:19;;;;;;;0.50;0.50;;;;;;;8.45;100.00;96204.50;5024124;28;20049;-74
2023/04/21 00:35:46;;;;;;;0.50;0.50;;;;;;;9.84;100.00;96422.66;5026596;28;20100;-74
2023/04/21 00:38:13;;;;;;;0.50;0.50;;;;;;;10.02;100.00;96481.72;5025225;28;20156;-75
2023/04/21 00:40:40;;;;;;;0.50;0.50;;;;;;;9.95;100.00;96503.78;5023699;28;20967;-75
2023/04/21 00:43:07;;;;;;;0.45;0.45;;;;;;;9.43;100.00;96415.53;5025322;28;20049;-74
2023/04/21 00:45:33;;;;;;;0.50;0.50;;;;;;;9.56;100.00;96463.84;5024823;28;20045;-73
2023/04/21 00:48:00;;;;;;;0.40;0.40;;;;;;;9.68;100.00;96487.66;5025289;28;20119;-75
2023/04/21 00:50:27;;;;;;;0.50;0.50;;;;;;;9.66;100.00;96485.28;4961509;28;20327;-73
2023/04/21 00:52:55;;;;;;;0.45;0.45;;;;;;;9.58;100.00;96494.66;2374986;28;10002056;-76
2023/04/21 00:55:22;;;;;;;0.40;0.40;;;;;;;9.45;100.00;96485.06;4978110;28;20082;-75
2023/04/21 00:57:50;;;;;;;0.50;0.50;;;;;;;9.33;100.00;96482.50;4987322;28;20046;-74
2023/04/21 01:00:17;;;;;;;0.50;0.50;;;;;;;8.96;100.00;96445.72;5005164;28;20120;-72
2023/04/21 01:02:44;;;;;;;0.40;0.40;;;;;;;9.27;100.00;96478.50;5004967;28;20539;-74
2023/04/21 01:05:11;;;;;;;0.40;0.40;;;;;;;9.32;100.00;96485.66;5003423;28;20057;-74
2023/04/21 01:07:38;;;;;;;0.47;0.47;;;;;;;9.28;100.00;96479.31;5004894;28;20054;-72
2023/04/21 01:10:05;;;;;;;0.40;0.40;;;;;;;9.27;100.00;96484.03;5005121;28;20053;-71
2023/04/21 01:12:32;;;;;;;0.50;0.50;;;;;;;9.05;100.00;96482.16;5004836;28;20062;-72
2023/04/21 01:14:59;;;;;;;0.50;0.50;;;;;;;8.22;100.00;96358.28;5002431;28;20115;-76
2023/04/21 01:17:26;;;;;;;0.40;0.40;;;;;;;8.87;100.00;96459.00;5004570;28;20204;-74
2023/04/21 01:19:55;;;;;;;0.40;0.40;;;;;;;8.27;100.00;96352.47;5003276;28;20050;-73
2023/04/21 01:22:22;;;;;;;0.40;0.40;;;;;;;8.72;100.00;96422.13;5002861;28;20046;-74
2023/04/21 01:24:48;;;;;;;0.40;0.40;;;;;;;9.02;100.00;96474.63;5004801;28;20096;-74
2023/04/21 01:27:18;;;;;;;0.40;0.40;;;;;;;8.72;100.00;96413.03;5003256;28;20498;-74
2023/04/21 01:29:47;;;;;;;0.40;0.40;;;;;;;8.52;100.00;96408.81;5004896;28;20054;-74
2023/04/21 01:32:16;;;;;;;0.40;0.40;;;;;;;8.90;100.00;96458.25;5004107;28;20720;-74
2023/04/21 01:34:44;;;;;;;0.40;0.40;;;;;;;8.77;100.00;96462.44;5004818;28;20101;-74
2023/04/21 01:37:13;;;;;;;0.40;0.40;;;;;;;8.61;100.00;96456.28;5004521;28;20053;-74
2023/04/21 01:39:42;;;;;;;0.40;0.40;;;;;;;8.60;100.00;96460.22;5002600;28;20053;-74
2023/04/21 01:42:10;;;;;;;0.40;0.40;;;;;;;8.46;100.00;96421.31;5004246;28;20520;-75
2023/04/21 01:44:37;;;;;;;0.43;0.43;;;;;;;7.99;100.00;96368.56;5004271;28;20050;-72
2023/04/21 01:47:04;;;;;;;0.40;0.40;;;;;;;8.62;100.00;96447.63;5002919;28;20145;-74
2023/04/21 01:49:31;;;;;;;0.40;0.40;;;;;;;8.37;100.00;96413.34;5002903;28;20097;-73
2023/04/21 01:51:58;;;;;;;0.40;0.40;;;;;;;8.65;100.00;96451.59;5002215;28;20064;-73
2023/04/21 01:54:24;;;;;;;0.40;0.40;;;;;;;7.98;100.00;96372.47;5003111;28;20144;-75
2023/04/21 01:56:51;;;;;;;0.40;0.40;;;;;;;8.60;100.00;96460.22;5004223;28;20131;-73
2023/04/21 01:59:18;;;;;;;0.40;0.40;;;;;;;8.39;100.00;96432.28;5003959;28;20132;-73
2023/04/21 02:01:45;;;;;;;0.40;0.40;;;;;;;8.41;100.00;96432.72;5003962;28;20082;-73
2023/04/21 02:04:12;;;;;;;0.40;0.40;;;;;;;8.10;100.00;96364.81;5004442;28;20293;-74
2023/04/21 02:06:38;;;;;;;0.40;0.40;;;;;;;8.16;100.00;96379.06;5004123;28;20053;-73
2023/04/21 02:09:05;;;;;;;0.50;0.50;;;;;;;8.26;100.00;96395.00;5004842;28;20054;-72
2023/04/21 02:11:32;;;;;;;0.40;0.40;;;;;;;8.19;100.00;96395.66;5002985;28;20185;-73
2023/04/21 02:13:59;;;;;;;0.40;0.40;;;;;;;6.45;100.00;96136.16;5004073;28;20050;-75
2023/04/21 02:16:25;;;;;;;0.40;0.40;;;;;;;8.47;100.00;96445.03;5002693;28;20139;-76
2023/04/21 02:18:53;;;;;;;0.40;0.40;;;;;;;7.95;100.00;96362.19;5003776;28;20057;-76
2023/04/21 02:21:23;;;;;;;0.40;0.40;;;;;;;8.35;100.00;96446.00;5004354;28;20539;-73
2023/04/21 02:23:51;;;;;;;0.40;0.40;;;;;;;8.34;100.00;96435.34;5003766;28;20168;-73
2023/04/21 02:26:18;;;;;;;0.50;0.50;;;;;;;8.41;100.00;96452.03;5005351;28;20524;-74
2023/04/21 02:28:46;;;;;;;0.50;0.50;;;;;;;8.23;100.00;96418.63;5006279;28;20053;-71
2023/04/21 02:31:12;;;;;;;0.40;0.40;;;;;;;8.34;100.00;96440.88;5008005;28;20140;-71
2023/04/21 02:33:39;;;;;;;0.40;0.40;;;;;;;8.35;100.00;96437.72;5007044;28;20144;-72
2023/04/21 02:36:06;;;;;;;0.40;0.40;;;;;;;8.18;100.00;96442.94;5006912;28;20073;-73
2023/04/21 02:38:33;;;;;;;0.40;0.40;;;;;;;8.14;100.00;96444.84;5006305;28;20058;-72
2023/04/21 02:41:00;;;;;;;0.40;0.40;;;;;;;8.10;100.00;96446.75;5006900;28;20081;-71
2023/04/21 02:43:26;;;;;;;0.40;0.40;;;;;;;7.90;100.00;96442.47;5005392;28;20097;-73
2023/04/21 02:45:53;;;;;;;0.40;0.40;;;;;;;7.81;100.00;96447.44;5005461;28;20090;-73
2023/04/21 02:48:21;;;;;;;0.40;0.40;;;;;;;7.80;100.00;96443.06;5006751;28;20053;-73
2023/04/21 02:50:49;;;;;;;0.30;0.30;;;;;;;7.56;100.00;96422.97;5007594;28;20046;-72
2023/04/21 02:53:16;;;;;;;0.40;0.40;;;;;;;5.65;100.00;96099.63;5007215;28;20141;-72
2023/04/21 02:55:42;;;;;;;0.40;0.40;;;;;;;7.30;100.00;96375.25;5007663;28;20046;-72
2023/04/21 02:58:09;;;;;;;0.35;0.35;;;;;;;7.71;100.00;96446.06;5006987;28;20053;-70
2023/04/21 03:00:36;;;;;;;0.32;0.32;;;;;;;7.16;100.00;96359.25;5007351;28;20092;-72
2023/04/21 03:03:03;;;;;;;0.40;0.40;;;;;;;7.86;100.00;96452.63;5005924;28;20504;-73
2023/04/21 03:05:30;;;;;;;0.40;0.40;;;;;;;7.66;100.00;96427.88;5007041;28;20100;-71
2023/04/21 03:07:57;;;;;;;0.30;0.30;;;;;;;7.90;100.00;96443.28;5007186;28;20139;-71
2023/04/21 03:10:23;;;;;;;0.40;0.40;;;;;;;5.62;100.00;96100.38;5007137;28;20104;-71
2023/04/21 03:12:50;;;;;;;0.40;0.40;;;;;;;7.74;100.00;96459.91;5006736;28;20104;-71
2023/04/21 03:15:18;;;;;;;0.40;0.40;;;;;;;7.32;100.00;96395.75;5005307;28;20128;-72
2023/04/21 03:17:45;;;;;;;0.40;0.40;;;;;;;7.30;100.00;96453.16;5011659;28;20058;-72
2023/04/21 03:20:12;;;;;;;0.30;0.30;;;;;;;7.12;100.00;96410.72;5007049;28;20050;-70
2023/04/21 03:22:38;;;;;;;0.40;0.40;;;;;;;6.83;100.00;96312.19;5006414;28;20062;-71
2023/04/21 03:25:06;;;;;;;0.40;0.40;;;;;;;7.84;100.00;96449.44;5006933;28;20414;-72
2023/04/21 03:27:33;;;;;;;0.40;0.40;;;;;;;7.49;100.00;96411.03;5005296;28;20430;-70
2023/04/21 03:30:00;;;;;;;0.40;0.40;;;;;;;8.00;100.00;96474.97;5006782;28;20050;-71
2023/04/21 03:32:27;;;;;;;0.40;0.40;;;;;;;7.53;100.00;96462.28;5006271;28;20491;-72
2023/04/21 03:34:54;;;;;;;0.40;0.40;;;;;;;7.68;100.00;96453.09;5005336;28;20049;-72
2023/04/21 03:37:20;;;;;;;0.40;0.40;;;;;;;7.87;100.00;96457.00;5005617;28;20046;-71
2023/04/21 03:39:47;;;;;;;0.40;0.40;;;;;;;7.93;100.00;96461.03;5006246;28;20061;-72
2023/04/21 03:42:14;;;;;;;0.30;0.30;;;;;;;7.65;100.00;96420.75;5006332;28;20417;-72
2023/04/21 03:44:40;;;;;;;0.40;0.40;;;;;;;7.77;100.00;96460.34;5006134;28;20501;-73
2023/04/21 03:47:07;;;;;;;0.40;0.40;;;;;;;7.42;100.00;96450.25;5006296;28;20101;-72
2023/04/21 03:49:34;;;;;;;0.40;0.40;;;;;;;7.52;100.00;96422.09;5006380;28;20436;-71
2023/04/21 03:52:00;;;;;;;0.40;0.40;;;;;;;7.79;100.00;96430.44;5005071;28;20479;-73
2023/04/21 03:54:27;;;;;;;0.40;0.40;;;;;;;8.05;100.00;96467.16;5005684;28;20570;-71
2023/04/21 03:56:54;;;;;;;0.40;0.40;;;;;;;8.02;100.00;96456.88;5006118;28;20081;-72
2023/04/21 03:59:21;;;;;;;0.40;0.40;;;;;;;8.04;100.00;96453.72;5005386;28;20050;-71
2023/04/21 04:01:47;;;;;;;0.40;0.40;;;;;;;8.14;100.00;96458.66;5014397;28;20103;-74
2023/04/21 04:04:14;;;;;;;0.40;0.40;;;;;;;7.81;100.00;96428.13;5012209;28;20046;-72
2023/04/21 04:06:41;;;;;;;0.40;0.40;;;;;;;8.18;100.00;96470.53;5004595;28;20541;-69
2023/04/21 04:09:08;;;;;;;0.40;0.40;;;;;;;8.00;100.00;96425.31;5006088;28;20049;-72
2023/04/21 04:11:34;;;;;;;0.50;0.50;;;;;;;8.37;100.00;96462.19;5006223;28;20141;-69
2023/04/21 04:14:01;;;;;;;0.40;0.40;;;;;;;8.47;100.00;96467.09;5005804;28;20088;-72
2023/04/21 04:16:28;;;;;;;0.40;0.40;;;;;;;8.49;100.00;96443.47;5006367;28;20132;-72
2023/04/21 04:18:55;;;;;;;0.40;0.40;;;;;;;8.59;99.80;96469.63;5005423;28;20045;-72
2023/04/21 04:21:22;;;;;;;0.40;0.40;;;;;;;8.55;97.75;96443.97;5006197;28;20058;-72
2023/04/21 04:23:51;;;;;;;0.47;0.47;;;;;;;8.34;98.17;96496.06;5005200;28;20516;-72
2023/04/21 04:26:18;;;;;;;0.45;0.45;;;;;;;8.72;99.25;96477.34;5006044;28;20489;-72
2023/04/21 04:28:45;;;;;;;0.40;0.40;;;;;;;6.18;99.25;96076.75;5004412;28;20057;-72
2023/04/21 04:31:12;;;;;;;0.40;0.40;;;;;;;8.76;97.33;96485.66;5005848;28;20106;-72
2023/04/21 04:33:42;;;;;;;0.40;0.40;;;;;;;8.31;100.00;96491.28;5005207;28;20050;-73
2023/04/21 04:36:10;;;;;;;0.40;0.40;;;;;;;8.52;100.00;96505.44;5005586;28;20137;-72
2023/04/21 04:38:37;;;;;;;0.40;0.40;;;;;;;7.85;100.00;96357.28;5005229;28;20053;-72
2023/04/21 04:41:05;;;;;;;0.40;0.40;;;;;;;8.43;99.11;96441.38;5005777;28;20050;-71
2023/04/21 04:43:40;;;;;;;0.40;0.40;;;;;;;8.47;99.36;96417.41;5005088;28;20440;-72
2023/04/21 04:46:11;;;;;;;0.45;0.45;;;;;;;9.22;98.59;96492.63;5005544;28;20050;-73
2023/04/21 04:48:38;;;;;;;0.50;0.50;;;;;;;8.55;97.04;96352.88;5004836;28;20050;-72
2023/04/21 04:51:06;;;;;;;0.50;0.50;;;;;;;9.42;96.92;96446.31;5005335;28;20530;-73
2023/04/21 04:53:33;;;;;;;0.40;0.40;;;;;;;9.75;97.19;96483.03;5005125;28;20054;-71
2023/04/21 04:55:59;;;;;;;0.50;0.50;;;;;;;9.59;95.96;96463.09;5005299;28;20605;-73
2023/04/21 04:58:26;;;;;;;0.50;0.50;;;;;;;10.08;91.55;96498.81;5003535;28;20488;-74
2023/04/21 05:00:53;;;;;;;0.40;0.40;;;;;;;10.33;91.56;96495.09;5005202;28;20140;-74
2023/04/21 05:03:20;;;;;;;0.50;0.50;;;;;;;10.53;91.33;96496.47;5005615;28;20076;-74
2023/04/21 05:05:47;;;;;;;0.50;0.50;;;;;;;10.22;90.81;96408.41;5005206;28;20081;-73
2023/04/21 05:08:14;;;;;;;0.50;0.50;;;;;;;10.63;90.06;96451.44;5005163;28;20398;-72
2023/04/21 05:10:43;;;;;;;0.50;0.50;;;;;;;11.05;89.40;96486.16;5003500;28;20088;-72
2023/04/21 05:13:10;;;;;;;0.50;0.50;;;;;;;11.17;87.52;96485.81;5003750;28;20543;-73
2023/04/21 05:15:36;;;;;;;0.50;0.50;;;;;;;11.32;87.87;96481.91;5005244;28;20058;-71
2023/04/21 05:18:03;;;;;;;0.50;0.50;;;;;;;11.32;87.62;96481.91;5003764;28;20054;-74
2023/04/21 05:20:30;;;;;;;0.50;0.50;;;;;;;10.49;87.04;96361.94;5003241;28;20049;-72
2023/04/21 05:22:57;;;;;;;0.55;0.55;;;;;;;11.11;86.64;96438.25;5004869;28;20112;-70
2023/04/21 05:25:23;;;;;;;0.60;0.60;;;;;;;11.56;86.48;96464.59;5003024;28;20141;-73
2023/04/21 05:27:50;;;;;;;0.50;0.50;;;;;;;11.57;86.55;96474.53;5003527;28;20078;-70
2023/04/21 05:30:17;;;;;;;0.50;0.50;;;;;;;11.65;86.17;96471.41;5003042;28;20137;-73
2023/04/21 05:32:44;;;;;;;0.50;0.50;;;;;;;11.55;87.97;96479.66;5004666;28;20250;-73
2023/04/21 05:35:10;;;;;;;0.50;0.50;;;;;;;11.31;87.94;96547.69;5002928;28;20140;-72
2023/04/21 05:37:37;;;;;;;0.50;0.50;;;;;;;11.78;87.65;96449.66;5004492;28;20332;-73
2023/04/21 05:40:05;;;;;;;0.50;0.50;;;;;;;11.99;85.98;96455.25;5004623;28;20144;-72
2023/04/21 05:42:32;;;;;;;0.50;0.50;;;;;;;11.97;86.65;96447.31;5003109;28;20574;-73
2023/04/21 05:44:58;;;;;;;0.50;0.50;;;;;;;12.16;86.76;96471.94;4999555;28;20072;-72
2023/04/21 05:47:25;;;;;;;0.50;0.50;;;;;;;11.38;85.46;96314.03;5024314;28;20140;-71
2023/04/21 05:49:52;;;;;;;0.60;0.60;;;;;;;12.19;84.92;96425.94;5022334;28;20053;-72
2023/04/21 05:52:22;;;;;;;0.50;0.50;;;;;;;11.45;83.82;96280.75;5024194;28;20126;-72
2023/04/21 05:54:49;;;;;;;0.55;0.55;;;;;;;12.77;83.89;96461.66;5023591;28;20454;-73
2023/04/21 05:57:16;;;;;;;0.55;0.55;;;;;;;12.38;84.73;96361.66;5024243;28;20119;-71
2023/04/21 05:59:43;;;;;;;0.50;0.50;;;;;;;12.57;83.25;96363.22;5023592;28;20053;-72
2023/04/21 06:02:10;;;;;;;0.60;0.60;;;;;;;13.06;84.35;96436.22;5022322;28;20058;-71
2023/04/21 06:04:37;;;;;;;0.60;0.60;;;;;;;11.90;84.35;96252.25;5022512;28;20108;-69
2023/04/21 06:07:09;;;;;;;0.60;0.60;;;;;;;13.51;83.37;96451.94;5020692;28;20586;-66
2023/04/21 06:09:36;;;;;;;0.60;0.60;;;;;;;13.69;81.31;96446.31;5014288;28;20855;-67
2023/04/21 06:12:06;;;;;;;0.60;0.60;;;;;;;13.72;81.08;96450.28;5009511;28;20603;-66
2023/04/21 06:14:32;;;;;;;0.60;0.60;;;;;;;13.94;80.81;96440.63;5018274;28;20124;-62
2023/04/21 06:16:59;;;;;;;0.60;0.60;;;;;;;13.84;79.41;96383.00;5021077;28;20054;-69
2023/04/21 06:19:25;;;;;;;0.60;0.60;;;;;;;14.08;78.32;96423.81;5023273;28;20145;-72
2023/04/21 06:21:52;;;;;;;0.60;0.60;;;;;;;14.39;77.11;96442.31;5023718;28;20045;-70
2023/04/21 06:24:24;;;;;;;0.60;0.60;;;;;;;14.08;78.01;96368.91;5022962;28;20124;-63
2023/04/21 06:26:52;;;;;;;0.65;0.65;;;;;;;14.62;77.91;96386.81;5003424;28;20104;-66
2023/04/21 06:29:19;;;;;;;0.63;0.63;;;;;;;15.18;76.83;96436.41;5018326;28;20096;-65
2023/04/21 06:31:46;;;;;;;0.70;0.70;;;;;;;14.82;73.34;96345.97;5023478;28;20080;-63
2023/04/21 06:34:13;;;;;;;0.70;0.70;;;;;;;15.63;72.75;96428.75;5020608;28;20096;-65
2023/04/21 06:36:40;;;;;;;0.70;0.70;;;;;;;15.28;71.42;96384.50;5013788;28;20053;-66
2023/04/21 06:39:06;;;;;;;0.70;0.70;;;;;;;15.24;72.53;96367.78;5021841;28;20045;-62
2023/04/21 06:41:33;;;;;;;0.70;0.70;;;;;;;14.61;74.01;96335.84;5019711;28;20050;-68
2023/04/21 06:44:00;;;;;;;0.70;0.70;;;;;;;15.93;72.10;96432.31;5019908;28;20053;-62
2023/04/21 06:46:26;;;;;;;0.70;0.70;;;;;;;15.84;71.17;96356.66;5021306;28;20080;-70
2023/04/21 06:48:53;;;;;;;0.80;0.80;;;;;;;16.50;72.04;96438.69;5020575;28;20531;-69
2023/04/21 06:51:20;;;;;;;0.70;0.70;;;;;;;16.71;71.19;96442.38;5022132;28;20049;-67
2023/04/21 06:53:46;;;;;;;0.70;0.70;;;;;;;17.08;69.54;96423.34;5021533;28;20097;-63
2023/04/21 06:56:13;;;;;;;0.70;0.70;;;;;;;16.89;70.65;96403.69;5020733;28;20053;-66
2023/04/21 06:58:39;;;;;;;0.70;0.70;;;;;;;17.16;69.06;96423.97;5014281;28;20045;-62
2023/04/21 07:01:06;;;;;;;0.75;0.75;;;;;;;16.89;68.12;96392.50;5011593;28;20058;-69
2023/04/21 07:03:33;;;;;;;0.80;0.80;;;;;;;16.59;67.90;96357.06;5015985;28;20215;-69
2023/04/21 07:06:00;;;;;;;0.70;0.70;;;;;;;15.87;69.56;96403.28;5006491;28;20141;-67
2023/04/21 07:08:26;;;;;;;0.70;0.70;;;;;;;16.14;70.20;96440.41;5019665;28;20500;-67
2023/04/21 07:10:53;;;;;;;0.80;0.80;;;;;;;16.78;68.54;96425.47;5020615;28;20140;-61
2023/04/21 07:13:20;;;;;;;0.82;0.82;;;;;;;17.41;67.93;96429.91;5022491;28;20073;-64
2023/04/21 07:15:46;;;;;;;0.80;0.80;;;;;;;16.93;64.70;96368.06;5020129;28;20479;-69
2023/04/21 07:18:13;;;;;;;0.80;0.80;;;;;;;17.92;64.44;96406.88;5024365;28;20471;-70
2023/04/21 07:20:40;;;;;;;0.80;0.80;;;;;;;18.19;61.46;96407.47;5024931;28;20085;-62
2023/04/21 07:23:07;;;;;;;0.70;0.70;;;;;;;18.24;61.68;96384.50;5025548;28;20053;-65
2023/04/21 07:25:33;;;;;;;0.80;0.80;;;;;;;18.60;60.62;96416.13;5018870;28;20499;-65
2023/04/21 07:28:02;;;;;;;0.80;0.80;;;;;;;18.97;58.55;96424.00;5023941;28;20050;-62
2023/04/21 07:30:29;;;;;;;0.73;0.73;;;;;;;18.69;57.31;96374.22;5023515;28;20049;-64
2023/04/21 07:32:56;;;;;;;0.80;0.80;;;;;;;18.47;56.73;96331.09;5024928;28;20107;-65
2023/04/21 07:35:23;;;;;;;0.82;0.82;;;;;;;18.83;56.96;96379.44;5026389;28;20075;-71
2023/04/21 07:37:50;;;;;;;0.80;0.80;;;;;;;19.21;55.70;96424.56;5021376;28;20049;-75
2023/04/21 07:40:17;;;;;;;0.80;0.80;;;;;;;18.93;54.04;96371.97;5024108;28;20076;-73
2023/04/21 07:42:43;;;;;;;0.82;0.82;;;;;;;19.34;54.01;96426.25;5024737;28;20524;-65
2023/04/21 07:45:11;;;;;;;0.80;0.80;;;;;;;19.15;55.30;96418.72;5024490;28;20053;-70
2023/04/21 07:47:37;;;;;;;0.70;0.70;;;;;;;19.10;51.24;96410.03;5026413;28;20452;-66
2023/04/21 07:50:05;;;;;;;0.80;0.80;;;;;;;19.01;50.03;96407.84;5022294;28;20063;-67
2023/04/21 07:52:32;;;;;;;0.80;0.80;;;;;;;19.39;49.47;96431.31;5007822;28;20061;-65
2023/04/21 07:54:58;;;;;;;0.80;0.80;;;;;;;19.08;47.64;96379.59;5032067;28;20057;-68
2023/04/21 07:57:25;;;;;;;0.80;0.80;;;;;;;19.42;48.65;96430.44;5010284;28;20443;-64
2023/04/21 07:59:52;;;;;;;0.75;0.75;;;;;;;19.49;48.31;96409.78;5024718;28;20519;-67
2023/04/21 08:02:18;;;;;;;0.80;0.80;;;;;;;17.71;48.31;96141.19;5023493;28;20524;-66
2023/04/21 08:04:45;;;;;;;0.80;0.80;;;;;;;19.61;48.56;96423.09;5021524;28;20045;-66
2023/04/21 08:07:13;;;;;;;0.80;0.80;;;;;;;19.02;47.88;96313.97;5022355;28;20053;-68
2023/04/21 08:09:40;;;;;;;0.80;0.80;;;;;;;19.73;47.30;96424.38;5012238;28;20052;-64
2023/04/21 08:12:07;;;;;;;0.82;0.82;;;;;;;19.75;47.01;96419.09;5017854;28;20091;-63
2023/04/21 08:14:33;;;;;;;0.80;0.80;;;;;;;19.82;46.35;96410.47;5023423;28;20132;-62
2023/04/21 08:17:00;;;;;;;0.88;0.88;;;;;;;19.75;47.93;96396.59;5020017;28;20045;-67
2023/04/21 08:19:27;;;;;;;0.80;0.80;;;;;;;19.82;47.44;96416.06;5019046;28;20049;-61
2023/04/21 08:21:54;;;;;;;0.80;0.80;;;;;;;19.61;48.96;96397.00;5021723;28;20061;-62
2023/04/21 08:24:20;;;;;;;0.80;0.80;;;;;;;18.98;49.03;96425.59;5022684;28;20077;-65
2023/04/21 08:26:48;;;;;;;0.80;0.80;;;;;;;17.12;50.18;96227.38;5021629;28;20136;-69
2023/04/21 08:29:15;;;;;;;0.70;0.70;;;;;;;18.56;50.40;96426.63;5025564;28;20468;-62
2023/04/21 08:31:41;;;;;;;0.73;0.73;;;;;;;19.23;50.49;96420.09;5023306;28;20054;-63
2023/04/21 08:34:08;;;;;;;0.80;0.80;;;;;;;19.51;49.08;96422.16;5025133;28;20060;-69
2023/04/21 08:36:35;;;;;;;0.70;0.70;;;;;;;18.35;50.98;96423.50;5011197;28;20058;-65
2023/04/21 08:39:01;;;;;;;0.70;0.70;;;;;;;18.42;50.87;96393.31;5030791;28;20084;-67
2023/04/21 08:41:28;;;;;;;0.70;0.70;;;;;;;17.41;51.61;96273.09;5020568;28;20065;-67
2023/04/21 08:43:55;;;;;;;0.70;0.70;;;;;;;18.57;50.65;96422.63;5024876;28;20108;-70
2023/04/21 08:46:23;;;;;;;0.70;0.70;;;;;;;18.61;48.58;96395.25;5020063;28;20050;-66
2023/04/21 08:48:49;;;;;;;0.75;0.75;;;;;;;18.08;49.08;96406.91;5023379;28;20124;-67
2023/04/21 08:51:22;;;;;;;0.70;0.70;;;;;;;18.38;47.83;96335.69;5024628;28;20073;-61
2023/04/21 08:53:50;;;;;;;0.73;0.73;;;;;;;18.82;48.13;96417.19;5022877;28;20053;-65
2023/04/21 08:56:17;;;;;;;0.70;0.70;;;;;;;16.58;48.18;96082.25;5023053;28;20065;-64
2023/04/21 08:58:44;;;;;;;0.75;0.75;;;;;;;19.57;47.08;96421.63;5011742;28;20512;-63
2023/04/21 09:01:11;;;;;;;0.70;0.70;;;;;;;19.60;45.78;96325.19;5023993;28;20049;-64
2023/04/21 09:03:38;;;;;;;0.80;0.80;;;;;;;19.95;44.41;96408.47;5022746;28;20060;-65
2023/04/21 09:06:07;;;;;;;0.80;0.80;;;;;;;20.15;44.82;96390.19;5018761;28;20063;-73
2023/04/21 09:08:42;;;;;;;0.90;0.90;;;;;;;19.93;44.24;96354.72;5022821;28;20475;-74
2023/04/21 09:11:13;;;;;;;0.80;0.80;;;;;;;18.30;47.62;96345.50;5023817;28;20072;-69
2023/04/21 09:13:41;;;;;;;0.80;0.80;;;;;;;18.60;45.78;96412.53;5021365;28;20064;-62
2023/04/21 09:16:17;;;;;;;0.80;0.80;;;;;;;18.70;49.32;96415.06;5010195;28;20053;-63
2023/04/21 09:18:44;;;;;;;0.70;0.70;;;;;;;17.53;48.80;96342.50;5023155;28;20556;-64
2023/04/21 09:21:13;;;;;;;0.80;0.80;;;;;;;17.59;48.05;96340.75;5014627;28;20465;-67
2023/04/21 09:23:42;;;;;;;0.70;0.70;;;;;;;18.49;48.22;96404.38;5007457;28;20049;-63
2023/04/21 09:26:09;;;;;;;0.70;0.70;;;;;;;18.80;48.17;96363.50;5005802;28;20484;-65
2023/04/21 09:28:40;;;;;;;0.80;0.80;;;;;;;19.64;45.57;96376.44;5023005;28;20625;-65
2023/04/21 09:31:19;;;;;;;0.80;0.80;;;;;;;19.54;46.26;96305.28;5022751;28;20057;-63
2023/04/21 09:33:47;;;;;;;0.80;0.80;;;;;;;20.59;44.91;96391.19;5003698;28;20595;-69
2023/04/21 09:36:27;;;;;;;0.80;0.80;;;;;;;20.91;43.84;96390.94;5010990;28;20174;-70
2023/04/21 09:38:53;;;;;;;0.80;0.80;;;;;;;21.19;43.40;96387.16;5017075;28;20132;-66
2023/04/21 09:41:42;;;;;;;0.90;0.90;;;;;;;20.71;42.87;96314.38;5004025;28;20057;-63
2023/04/21 09:44:08;;;;;;;0.90;0.90;;;;;;;21.60;42.46;96386.09;5021805;28;20585;-67
2023/04/21 09:46:35;;;;;;;0.90;0.90;;;;;;;21.76;42.41;96377.47;5022225;28;20099;-69
2023/04/21 09:49:04;;;;;;;0.80;0.80;;;;;;;21.47;41.46;96360.78;5023268;28;20049;-64
2023/04/21 09:51:31;;;;;;;0.95;0.95;;;;;;;21.82;41.04;96359.50;5021849;28;20045;-68
2023/04/21 09:54:19;;;;;;;0.80;0.80;;;;;;;22.12;41.28;96367.19;5023621;28;20501;-69
2023/04/21 09:57:00;;;;;;;1.02;1.02;;;;;;;21.43;40.17;96346.06;5018116;28;20613;-66
2023/04/21 09:59:43;;;;;;;0.90;0.90;;;;;;;20.87;41.98;96333.94;5020600;28;20076;-61
2023/04/21 10:02:11;;;;;;;1.00;1.00;;;;;;;21.94;40.10;96378.38;5024833;28;20068;-62
2023/04/21 10:04:42;;;;;;;0.90;0.90;;;;;;;22.32;40.05;96378.09;5015104;28;20354;-64
2023/04/21 10:07:11;;;;;;;0.90;0.90;;;;;;;22.14;39.76;96280.06;5020960;28;20049;-70
2023/04/21 10:09:44;;;;;;;0.98;0.98;;;;;;;22.64;37.69;96363.50;5018027;28;20120;-64
2023/04/21 10:12:12;;;;;;;1.02;1.02;;;;;;;21.33;40.82;96333.13;5004183;28;20441;-63
2023/04/21 10:14:39;;;;;;;1.08;1.08;;;;;;;21.76;41.60;96338.00;5009063;28;20052;-64
2023/04/21 10:17:08;;;;;;;0.80;0.80;;;;;;;21.95;42.01;96379.97;5017866;28;20050;-61
2023/04/21 10:19:40;;;;;;;1.10;1.10;;;;;;;21.62;39.78;96328.03;5002671;28;20050;-61
2023/04/21 10:22:10;;;;;;;0.80;0.80;;;;;;;20.25;41.63;96242.03;5022126;28;20057;-63
2023/04/21 10:24:39;;;;;;;0.80;0.80;;;;;;;19.91;43.55;96368.41;5021991;28;20413;-63
2023/04/21 10:27:29;;;;;;;0.80;0.80;;;;;;;20.36;44.71;96374.69;5008288;28;20498;-61
2023/04/21 10:29:57;;;;;;;0.80;0.80;;;;;;;20.02;44.77;96284.53;5023403;28;20444;-67
2023/04/21 10:32:40;;;;;;;0.80;0.80;;;;;;;19.84;45.04;96368.63;5021136;28;20073;-61
2023/04/21 10:35:22;;;;;;;0.70;0.70;;;;;;;20.26;46.41;96381.41;5020796;28;20140;-65
2023/04/21 10:37:52;;;;;;;0.90;0.90;;;;;;;20.61;45.81;96366.22;5013268;28;20488;-61
2023/04/21 10:40:35;;;;;;;1.00;1.00;;;;;;;20.52;45.58;96364.06;5021088;28;20041;-59
2023/04/21 10:43:42;;;;;;;0.80;0.80;;;;;;;20.83;42.95;96361.44;5007458;28;20076;-72
2023/04/21 10:46:46;;;;;;;0.88;0.88;;;;;;;20.50;44.49;96354.53;5003526;28;20066;-74
2023/04/21 10:49:22;;;;;;;0.80;0.80;;;;;;;19.76;45.76;96364.47;5007150;28;20492;-61
2023/04/21 10:51:58;;;;;;;0.75;0.75;;;;;;;19.96;44.91;96362.25;5011824;28;20049;-61
2023/04/21 10:54:28;;;;;;;0.80;0.80;;;;;;;18.41;45.58;96032.78;5020475;28;20050;-65
2023/04/21 10:56:56;;;;;;;0.90;0.90;;;;;;;20.28;43.81;96300.19;5013081;28;20049;-62
2023/04/21 10:59:25;;;;;;;0.80;0.80;;;;;;;20.49;44.24;96347.28;5019320;28;20053;-72
2023/04/21 11:01:52;;;;;;;0.80;0.80;;;;;;;20.64;44.49;96337.16;5022427;28;20152;-72
2023/04/21 11:04:20;;;;;;;0.80;0.80;;;;;;;20.49;44.40;96375.44;5007155;28;20045;-63
2023/04/21 11:07:09;;;;;;;0.90;0.90;;;;;;;21.40;42.39;96377.97;5007368;28;20058;-65
2023/04/21 11:09:37;;;;;;;0.88;0.88;;;;;;;21.42;40.77;96364.19;5007395;28;20057;-66
2023/04/21 11:12:06;;;;;;;0.90;0.90;;;;;;;21.55;40.79;96376.19;5022764;28;20058;-63
2023/04/21 11:14:34;;;;;;;1.02;1.02;;;;;;;21.45;40.31;96373.78;5010843;28;20051;-63
2023/04/21 11:17:04;;;;;;;0.90;0.90;;;;;;;21.41;39.40;96373.09;5020696;28;20049;-61
2023/04/21 11:19:31;;;;;;;0.98;0.98;;;;;;;21.84;39.08;96368.28;5024186;28;20053;-61
2023/04/21 11:21:58;;;;;;;0.90;0.90;;;;;;;21.52;38.47;96269.22;5024384;28;20115;-62
2023/04/21 11:24:24;;;;;;;0.90;0.90;;;;;;;22.37;38.38;96367.00;5024726;28;20099;-70
2023/04/21 11:26:51;;;;;;;0.93;0.93;;;;;;;21.81;38.47;96369.22;5024565;28;20381;-70
2023/04/21 11:29:18;;;;;;;1.00;1.00;;;;;;;21.83;39.19;96349.78;5024238;28;20151;-61
2023/04/21 11:31:47;;;;;;;0.90;0.90;;;;;;;21.91;38.22;96305.16;5024438;28;20512;-61
2023/04/21 11:34:15;;;;;;;0.90;0.90;;;;;;;22.29;38.33;96365.69;5026015;28;20167;-69
2023/04/21 11:36:43;;;;;;;1.00;1.00;;;;;;;22.34;37.25;96367.94;5026220;28;20065;-60
2023/04/21 11:39:12;;;;;;;0.90;0.90;;;;;;;22.18;37.44;96368.16;5024274;28;20057;-61